Terminal Aerodrome Forecast
Issued by NWS

Home | Current Version | Previous Version | Text Only | Print | Product List | Glossary On
Versions: 1 2 3 4 5 6 7 8 9 10 11 12
386
FTUS42 KMLB 220539
TAFSUA
TAF
KSUA 220539Z 2206/2306 16003KT P6SM SCT250
     FM221300 20015G23KT P6SM SCT025 BKN250
     FM221700 21021G32KT P6SM SCT040 BKN150
      TEMPO 2303/2305 25020G40KT 2SM +TSRA BKN015CB
     FM230500 21015G22KT P6SM -RA VCTS BKN035CB=

USA.gov is the U.S. government's official web portal to all federal, state and local government web resources and services.